Time;durP1;ratioP1;P1;durP2;ratioP2;P2;SDS_P1;SDS_P2;PMS_P1;PMS_P2;Temp;Humidity;BMP_temperature;BMP_pressure;BME280_temperature;BME280_humidity;BME280_pressure;Samples;Min_cycle;Max_cycle;Signal;HPM_P1;HPM_P2
2022/03/09 00:01:34;;;;;;;6.60;2.55;;;;;;;4.65;40.77;100820.00;5055584;28;20264;-79
2022/03/09 00:03:59;;;;;;;7.20;3.05;;;;;;;4.48;41.61;100819.88;5053827;28;20025;-79
2022/03/09 00:06:25;;;;;;;5.38;2.38;;;;;;;4.42;41.96;100825.84;5055270;28;20033;-79
2022/03/09 00:08:51;;;;;;;7.63;2.83;;;;;;;4.28;42.27;100822.91;5055418;28;20098;-79
2022/03/09 00:11:17;;;;;;;6.55;2.80;;;;;;;4.25;42.53;100828.53;5054016;28;20119;-79
2022/03/09 00:13:42;;;;;;;8.15;2.85;;;;;;;4.47;42.15;100826.22;5055680;28;20033;-79
2022/03/09 00:16:08;;;;;;;10.43;2.50;;;;;;;4.44;42.22;100834.53;5055742;28;20052;-79
2022/03/09 00:18:33;;;;;;;6.97;2.50;;;;;;;4.38;42.15;100831.66;5057316;28;20055;-80
2022/03/09 00:20:58;;;;;;;7.30;2.50;;;;;;;4.37;41.81;100833.47;5057956;28;20087;-80
2022/03/09 00:23:24;;;;;;;6.17;2.30;;;;;;;4.45;41.89;100835.38;5057511;28;20029;-80
2022/03/09 00:25:49;;;;;;;7.93;2.23;;;;;;;4.53;41.68;100838.09;5057796;28;20091;-79
2022/03/09 00:28:15;;;;;;;7.00;2.60;;;;;;;4.71;40.76;100836.22;5056252;28;20049;-79
2022/03/09 00:30:40;;;;;;;5.50;2.07;;;;;;;4.72;40.45;100831.72;5058232;28;20029;-80
2022/03/09 00:33:05;;;;;;;8.33;2.57;;;;;;;4.67;40.04;100836.69;5056639;28;20048;-80
2022/03/09 00:35:31;;;;;;;4.33;1.80;;;;;;;4.70;40.00;100831.88;5058470;28;20615;-79
2022/03/09 00:37:56;;;;;;;6.33;2.30;;;;;;;4.68;39.93;100841.03;5058027;28;20486;-80
2022/03/09 00:40:22;;;;;;;6.03;2.60;;;;;;;4.66;40.07;100843.84;5056298;28;20271;-80
2022/03/09 00:42:47;;;;;;;5.10;2.13;;;;;;;4.71;39.59;100843.38;5057819;28;20067;-79
2022/03/09 00:45:13;;;;;;;4.78;1.77;;;;;;;4.75;39.71;100844.75;5057111;28;20128;-80
2022/03/09 00:47:38;;;;;;;5.00;2.30;;;;;;;4.74;39.63;100843.09;5057267;28;20111;-81
2022/03/09 00:50:05;;;;;;;7.40;2.27;;;;;;;4.73;39.44;100844.91;5056827;28;20491;-83
2022/03/09 00:52:30;;;;;;;5.20;1.90;;;;;;;4.80;39.38;100834.47;5057289;28;20263;-80
2022/03/09 00:54:56;;;;;;;7.57;2.13;;;;;;;4.79;39.48;100840.78;5057433;28;20106;-80
2022/03/09 00:57:21;;;;;;;6.40;2.17;;;;;;;4.84;39.29;100839.28;5056821;28;20025;-80
2022/03/09 00:59:47;;;;;;;4.47;2.00;;;;;;;4.64;39.95;100834.34;5057187;28;20040;-80
2022/03/09 01:02:12;;;;;;;7.50;2.23;;;;;;;4.67;39.80;100836.69;5057048;28;20384;-79
2022/03/09 01:04:38;;;;;;;4.10;1.55;;;;;;;4.79;39.24;100835.44;5058429;28;20464;-79
2022/03/09 01:07:04;;;;;;;6.63;1.70;;;;;;;4.88;38.43;100826.47;5060223;28;20053;-80
2022/03/09 01:09:29;;;;;;;4.90;1.55;;;;;;;5.00;38.01;100819.88;5058847;28;20025;-84
2022/03/09 01:11:55;;;;;;;5.47;1.90;;;;;;;4.92;38.75;100827.84;5059869;28;20102;-79
2022/03/09 01:14:20;;;;;;;5.22;1.77;;;;;;;4.94;38.13;100825.00;5059768;28;20059;-78
2022/03/09 01:16:46;;;;;;;4.10;1.80;;;;;;;5.14;37.74;100821.94;5059990;28;20040;-80
2022/03/09 01:19:11;;;;;;;5.28;2.03;;;;;;;5.07;37.79;100823.56;5060150;28;20089;-79
2022/03/09 01:21:36;;;;;;;6.03;2.40;;;;;;;5.25;36.96;100828.84;5059981;28;20032;-79
2022/03/09 01:24:03;;;;;;;4.83;2.00;;;;;;;5.25;36.74;100834.19;5059028;28;20283;-80
2022/03/09 01:26:28;;;;;;;4.68;1.95;;;;;;;5.19;36.96;100829.50;5058766;28;20021;-83
2022/03/09 01:28:54;;;;;;;4.72;1.77;;;;;;;5.46;36.11;100825.75;5059349;28;20417;-79
2022/03/09 01:31:19;;;;;;;4.50;1.57;;;;;;;5.51;36.39;100824.28;5059528;28;20029;-79
2022/03/09 01:33:45;;;;;;;4.97;1.73;;;;;;;5.43;36.78;100818.88;5058062;28;20558;-80
2022/03/09 01:36:10;;;;;;;5.27;1.80;;;;;;;5.42;36.20;100816.38;5059250;28;20029;-79
2022/03/09 01:38:36;;;;;;;6.33;1.80;;;;;;;5.36;36.64;100809.03;5059143;28;20256;-79
2022/03/09 01:41:01;;;;;;;4.50;1.90;;;;;;;5.45;36.54;100808.03;5059837;28;20364;-79
2022/03/09 01:43:26;;;;;;;5.50;2.00;;;;;;;5.50;36.85;100808.41;5060694;28;20063;-81
2022/03/09 01:45:52;;;;;;;5.37;1.77;;;;;;;5.34;36.82;100805.66;5060361;28;20086;-78
2022/03/09 01:48:17;;;;;;;6.70;1.73;;;;;;;5.27;37.11;100804.63;5056995;28;20040;-78
2022/03/09 01:50:44;;;;;;;5.32;2.15;;;;;;;5.46;36.79;100807.03;5056402;28;20638;-78
2022/03/09 01:53:11;;;;;;;6.03;2.42;;;;;;;5.41;36.59;100799.50;5056499;28;20036;-78
2022/03/09 01:55:36;;;;;;;5.20;1.70;;;;;;;5.36;37.01;100798.34;5056556;28;20029;-78
2022/03/09 01:58:03;;;;;;;4.43;1.98;;;;;;;5.56;36.20;100805.88;5056540;28;20029;-79
2022/03/09 02:00:28;;;;;;;;;;;;;;;5.42;36.90;100813.69;5056764;28;20116;-81
2022/03/09 02:02:53;;;;;;;5.47;1.80;;;;;;;5.34;37.14;100801.16;5056702;28;20339;-80
2022/03/09 02:05:19;;;;;;;6.33;1.97;;;;;;;5.39;36.49;100804.16;5056441;28;20087;-79
2022/03/09 02:10:29;;;;;;;5.55;1.92;;;;;;;5.32;37.12;100805.00;5056213;28;20043;-78
2022/03/09 02:12:54;;;;;;;4.63;1.92;;;;;;;5.23;37.49;100804.94;5056338;28;20387;-80
2022/03/09 02:15:19;;;;;;;5.73;2.33;;;;;;;5.37;36.83;100803.53;5055882;28;20088;-81
2022/03/09 02:17:45;;;;;;;5.63;2.47;;;;;;;5.35;36.63;100805.50;5055222;28;20021;-80
2022/03/09 02:20:10;;;;;;;6.00;2.53;;;;;;;5.36;37.12;100804.50;5055885;28;20460;-78
2022/03/09 02:22:41;;;;;;;4.10;1.80;;;;;;;5.35;37.01;100818.88;5055707;28;20033;-79
2022/03/09 02:25:15;;;;;;;7.13;2.05;;;;;;;5.27;37.48;100826.00;5056852;28;20033;-80
2022/03/09 02:27:42;;;;;;;4.88;2.03;;;;;;;5.32;36.61;100818.34;5056323;28;20029;-79
2022/03/09 02:30:11;;;;;;;13.18;2.65;;;;;;;5.29;36.93;100816.84;5055908;28;20036;-78
2022/03/09 02:32:44;;;;;;;5.70;2.47;;;;;;;5.26;37.39;100808.31;5055471;28;20039;-78
2022/03/09 02:35:11;;;;;;;6.10;2.08;;;;;;;5.43;36.43;100815.38;5055922;28;20029;-82
2022/03/09 02:37:38;;;;;;;5.63;1.98;;;;;;;5.33;36.59;100820.03;5055022;28;20036;-77
2022/03/09 02:40:07;;;;;;;5.93;2.00;;;;;;;5.21;36.91;100806.94;5054980;28;20044;-77
2022/03/09 02:42:33;;;;;;;5.80;2.38;;;;;;;5.17;36.85;100810.94;5054038;28;20044;-79
2022/03/09 02:44:59;;;;;;;6.22;2.35;;;;;;;5.31;36.53;100806.81;5055283;28;20021;-79
2022/03/09 02:47:24;;;;;;;3.95;1.65;;;;;;;5.26;36.88;100810.97;5055045;28;20036;-77
2022/03/09 02:49:49;;;;;;;5.90;2.30;;;;;;;5.23;37.27;100806.78;5055285;28;20029;-78
2022/03/09 02:52:16;;;;;;;4.73;1.97;;;;;;;5.33;36.45;100804.00;5055286;28;20472;-77
2022/03/09 02:54:41;;;;;;;;;;;;;;;5.27;36.80;100805.47;5054153;28;20025;-78
2022/03/09 02:57:07;;;;;;;5.90;1.90;;;;;;;5.28;36.39;100801.81;5055435;28;19971;-78
2022/03/09 02:59:32;;;;;;;;;;;;;;;5.19;36.98;100794.78;5054963;28;20028;-78
2022/03/09 03:01:58;;;;;;;5.65;2.47;;;;;;;5.05;37.13;100806.03;5054955;28;20377;-78
2022/03/09 03:04:23;;;;;;;6.00;1.90;;;;;;;5.26;36.86;100800.28;5054624;28;20032;-79
2022/03/09 03:06:48;;;;;;;5.87;2.10;;;;;;;5.13;36.88;100796.25;5054873;28;20486;-78
2022/03/09 03:09:14;;;;;;;6.40;2.17;;;;;;;5.06;37.34;100803.19;5055187;28;20459;-79
2022/03/09 03:11:39;;;;;;;6.47;2.03;;;;;;;5.09;37.63;100786.88;5055298;28;20029;-79
2022/03/09 03:14:04;;;;;;;6.17;2.20;;;;;;;5.16;36.96;100790.59;5055780;28;20119;-79
2022/03/09 03:16:30;;;;;;;4.67;1.67;;;;;;;5.08;36.88;100798.53;5055694;28;20052;-79
2022/03/09 03:18:55;;;;;;;4.87;2.03;;;;;;;5.11;36.80;100797.38;5055218;28;20036;-77
2022/03/09 03:21:20;;;;;;;6.07;1.93;;;;;;;5.09;37.20;100788.69;5055202;28;20260;-78
2022/03/09 03:23:46;;;;;;;4.60;1.87;;;;;;;5.12;37.44;100791.88;5054447;28;20037;-78
2022/03/09 03:26:11;;;;;;;5.80;2.10;;;;;;;5.01;37.11;100792.19;5055005;28;20104;-78
2022/03/09 03:28:36;;;;;;;4.23;1.70;;;;;;;5.10;37.81;100793.88;5053929;28;20065;-80
2022/03/09 03:31:02;;;;;;;4.67;2.10;;;;;;;4.90;37.46;100789.78;5054593;28;20025;-80
2022/03/09 03:33:28;;;;;;;5.47;2.05;;;;;;;4.94;36.99;100793.81;5055577;28;20029;-79
2022/03/09 03:35:53;;;;;;;5.30;2.28;;;;;;;5.12;37.11;100794.56;5054425;28;20064;-78
2022/03/09 03:38:19;;;;;;;5.83;2.30;;;;;;;5.06;37.13;100787.19;5053957;28;20029;-77
2022/03/09 03:40:45;;;;;;;9.53;2.70;;;;;;;5.12;36.78;100785.72;5054783;28;20710;-78
2022/03/09 03:43:11;;;;;;;6.03;2.22;;;;;;;5.03;37.13;100781.31;5054475;28;20248;-80
2022/03/09 03:45:36;;;;;;;4.70;1.80;;;;;;;4.88;37.71;100783.75;5054824;28;20043;-80
2022/03/09 03:48:02;;;;;;;5.47;1.80;;;;;;;4.91;37.71;100779.94;5054523;28;20120;-78
2022/03/09 03:50:27;;;;;;;6.90;2.40;;;;;;;4.93;37.62;100777.94;5053814;28;20068;-77
2022/03/09 03:52:53;;;;;;;6.70;1.50;;;;;;;4.94;37.57;100777.78;5053893;28;20036;-76
2022/03/09 03:55:18;;;;;;;5.27;2.13;;;;;;;4.78;37.71;100777.72;5053936;28;20025;-77
2022/03/09 03:57:44;;;;;;;4.50;1.95;;;;;;;4.92;37.46;100779.78;5054341;28;20496;-77
2022/03/09 04:00:10;;;;;;;9.43;2.92;;;;;;;4.85;37.79;100768.03;5054272;28;20035;-78
2022/03/09 04:02:36;;;;;;;4.80;1.83;;;;;;;4.82;37.50;100782.59;5053923;28;20029;-81
2022/03/09 04:05:02;;;;;;;6.75;1.80;;;;;;;4.76;37.70;100777.88;5054116;28;20490;-79
2022/03/09 04:07:27;;;;;;;5.95;2.17;;;;;;;4.93;37.89;100781.44;5054150;28;20044;-79
2022/03/09 04:09:53;;;;;;;4.20;1.80;;;;;;;4.83;37.42;100783.41;5053297;28;20033;-78
2022/03/09 04:12:19;;;;;;;5.80;1.83;;;;;;;4.84;38.02;100777.88;5053997;28;20067;-79
2022/03/09 04:14:44;;;;;;;4.27;1.73;;;;;;;4.87;37.80;100774.06;5054183;28;20036;-78
2022/03/09 04:17:10;;;;;;;6.05;1.83;;;;;;;4.88;37.33;100778.41;5052619;28;20259;-79
2022/03/09 04:19:35;;;;;;;9.25;2.72;;;;;;;4.88;37.40;100789.09;5054358;28;20391;-79
2022/03/09 04:22:01;;;;;;;4.97;2.00;;;;;;;4.76;37.89;100787.72;5055546;28;20171;-79
2022/03/09 04:24:26;;;;;;;5.80;2.10;;;;;;;4.70;38.08;100786.50;5054043;28;20025;-79
2022/03/09 04:26:51;;;;;;;6.73;2.47;;;;;;;4.68;38.40;100787.66;5052962;28;20079;-78
2022/03/09 04:29:17;;;;;;;4.40;1.70;;;;;;;4.73;38.54;100790.69;5054360;28;20053;-79
2022/03/09 04:31:43;;;;;;;6.63;2.45;;;;;;;4.75;38.09;100786.88;5053905;28;20040;-78
2022/03/09 04:34:08;;;;;;;5.10;1.83;;;;;;;4.64;38.62;100784.47;5054168;28;20464;-79
2022/03/09 04:36:34;;;;;;;4.40;2.07;;;;;;;4.57;38.57;100795.94;5052302;28;20039;-78
2022/03/09 04:38:59;;;;;;;4.82;1.88;;;;;;;4.51;39.31;100792.03;5055075;28;20029;-80
2022/03/09 04:41:25;;;;;;;6.43;2.17;;;;;;;4.51;38.43;100797.38;5058331;28;20406;-79
2022/03/09 04:43:50;;;;;;;5.82;1.73;;;;;;;4.40;39.02;100794.97;5056931;28;20279;-78
2022/03/09 04:46:16;;;;;;;6.47;2.00;;;;;;;4.50;38.65;100795.69;5057987;28;20094;-78
2022/03/09 04:48:43;;;;;;;5.72;2.25;;;;;;;4.49;38.58;100786.84;5058743;28;20132;-79
2022/03/09 04:51:08;;;;;;;5.63;2.63;;;;;;;4.46;38.68;100794.38;5057975;28;20021;-80
2022/03/09 04:53:33;;;;;;;9.20;2.00;;;;;;;4.36;38.81;100798.94;5057667;28;20040;-79
2022/03/09 04:55:59;;;;;;;6.53;2.30;;;;;;;4.37;38.86;100798.78;5056679;28;20619;-78
2022/03/09 04:58:24;;;;;;;4.43;2.10;;;;;;;4.37;38.77;100798.78;5058247;28;20028;-82
2022/03/09 05:00:51;;;;;;;6.03;2.40;;;;;;;4.33;38.68;100799.25;5056704;28;20175;-79
2022/03/09 05:03:16;;;;;;;10.38;2.50;;;;;;;4.39;38.38;100801.31;5057987;28;20127;-79
2022/03/09 05:05:41;;;;;;;5.67;1.93;;;;;;;4.35;38.76;100800.78;5056637;28;20108;-78
2022/03/09 05:08:07;;;;;;;5.27;2.00;;;;;;;4.30;38.96;100797.72;5058160;28;20036;-79
2022/03/09 05:10:32;;;;;;;8.90;2.20;;;;;;;4.37;38.65;100801.47;5058285;28;20742;-80
2022/03/09 05:12:58;;;;;;;7.88;2.20;;;;;;;4.43;38.82;100794.69;5056673;28;20025;-81
2022/03/09 05:15:23;;;;;;;6.17;2.07;;;;;;;4.38;38.80;100808.47;5057315;28;20123;-82
2022/03/09 05:17:48;;;;;;;4.53;2.00;;;;;;;4.33;38.55;100800.09;5057692;28;20025;-79
2022/03/09 05:20:17;;;;;;;5.33;2.10;;;;;;;4.31;38.94;100796.75;5057315;28;20321;-80
2022/03/09 05:22:42;;;;;;;6.50;2.53;;;;;;;4.29;39.23;100792.56;5058403;28;20031;-79
2022/03/09 05:25:08;;;;;;;6.00;2.10;;;;;;;4.25;38.70;100794.72;5056255;28;20036;-80
2022/03/09 05:27:34;;;;;;;5.47;2.45;;;;;;;4.30;38.87;100792.38;5057558;28;20588;-79
2022/03/09 05:29:59;;;;;;;6.30;2.57;;;;;;;4.36;38.67;100791.78;5057677;28;20025;-79
2022/03/09 05:32:25;;;;;;;7.03;3.27;;;;;;;4.34;38.40;100795.59;5057537;28;20391;-80
2022/03/09 05:34:51;;;;;;;4.93;1.85;;;;;;;4.31;38.58;100801.22;5056578;28;20359;-78
2022/03/09 05:37:17;;;;;;;9.95;2.40;;;;;;;4.28;38.82;100797.06;5058441;28;20048;-80
2022/03/09 05:39:43;;;;;;;5.57;2.53;;;;;;;4.27;39.25;100800.72;5058604;28;20065;-81
2022/03/09 05:42:09;;;;;;;5.88;2.00;;;;;;;4.26;38.89;100801.72;5058135;28;20040;-78
2022/03/09 05:44:35;;;;;;;7.03;2.60;;;;;;;4.39;38.78;100804.81;5058493;28;20034;-83
2022/03/09 05:47:00;;;;;;;5.72;2.35;;;;;;;4.25;39.50;100800.03;5056746;28;20525;-77
2022/03/09 05:49:26;;;;;;;4.67;1.80;;;;;;;4.36;38.60;100804.28;5056522;28;20036;-79
2022/03/09 05:51:54;;;;;;;5.47;2.17;;;;;;;4.35;39.09;100807.94;5055754;28;20056;-78
2022/03/09 05:54:20;;;;;;;6.82;2.40;;;;;;;4.49;38.94;100810.88;5057706;28;20037;-80
2022/03/09 05:56:46;;;;;;;6.63;2.28;;;;;;;4.43;38.95;100816.84;5055397;28;20044;-80
2022/03/09 05:59:11;;;;;;;6.47;2.65;;;;;;;4.40;38.94;100819.00;5057523;28;20025;-80
2022/03/09 06:01:37;;;;;;;6.13;2.07;;;;;;;4.30;39.22;100816.41;5056784;28;20492;-79
2022/03/09 06:04:03;;;;;;;4.57;1.90;;;;;;;4.33;38.79;100815.25;5056252;28;20286;-82
2022/03/09 06:06:29;;;;;;;;;;;;;;;4.25;38.93;100808.03;5057758;28;20033;-82
2022/03/09 06:08:54;;;;;;;8.63;2.10;;;;;;;4.21;39.16;100812.00;5058022;28;19913;-79
2022/03/09 06:11:19;;;;;;;8.07;2.33;;;;;;;4.20;39.09;100815.66;5057135;28;20064;-79
2022/03/09 06:13:45;;;;;;;6.07;2.27;;;;;;;4.17;39.32;100822.13;5056435;28;20258;-79
2022/03/09 06:16:10;;;;;;;9.60;2.40;;;;;;;4.12;39.61;100824.41;5056993;28;20031;-79
2022/03/09 06:18:36;;;;;;;6.67;2.27;;;;;;;4.19;39.53;100824.66;5056014;28;20351;-77
2022/03/09 06:21:01;;;;;;;8.13;1.95;;;;;;;4.16;39.99;100817.78;5055742;28;20036;-78
2022/03/09 06:23:27;;;;;;;5.50;2.20;;;;;;;4.15;39.68;100829.44;5055362;28;20037;-77
2022/03/09 06:25:52;;;;;;;5.32;2.22;;;;;;;4.07;39.59;100839.22;5055362;28;20548;-77
2022/03/09 06:28:17;;;;;;;5.63;2.23;;;;;;;4.15;39.59;100836.63;5055497;28;20111;-78
2022/03/09 06:30:43;;;;;;;7.07;2.60;;;;;;;4.20;40.38;100829.00;5055356;28;20286;-78
2022/03/09 06:33:08;;;;;;;6.70;2.10;;;;;;;4.05;40.35;100835.88;5055150;28;20376;-79
2022/03/09 06:35:34;;;;;;;7.93;2.30;;;;;;;4.14;40.12;100825.09;5056237;28;20633;-79
2022/03/09 06:37:59;;;;;;;7.47;2.30;;;;;;;4.22;39.57;100823.50;5055667;28;20040;-80
2022/03/09 06:40:25;;;;;;;5.40;1.93;;;;;;;4.18;39.83;100823.81;5056599;28;20040;-78
2022/03/09 06:42:51;;;;;;;7.75;2.50;;;;;;;4.16;39.88;100823.13;5057129;28;20068;-79
2022/03/09 06:45:16;;;;;;;9.68;2.17;;;;;;;4.24;40.28;100833.03;5058137;28;20041;-81
2022/03/09 06:47:42;;;;;;;6.20;2.40;;;;;;;4.22;39.46;100826.19;5057926;28;20154;-78
2022/03/09 06:50:09;;;;;;;7.83;2.67;;;;;;;4.30;39.42;100820.94;5059430;28;20346;-79
2022/03/09 06:52:35;;;;;;;6.55;2.20;;;;;;;4.30;39.55;100829.75;5061585;28;20255;-79
2022/03/09 06:55:03;;;;;;;8.48;2.60;;;;;;;4.34;39.63;100830.28;5062314;28;20052;-79
2022/03/09 06:57:31;;;;;;;4.45;2.17;;;;;;;4.38;39.34;100832.47;5062649;28;20041;-79
2022/03/09 06:59:56;;;;;;;4.82;2.03;;;;;;;4.47;39.24;100846.75;5059707;28;20032;-79
2022/03/09 07:02:22;;;;;;;6.63;2.30;;;;;;;4.42;39.61;100844.53;5057109;28;20104;-78
2022/03/09 07:04:48;;;;;;;5.85;2.25;;;;;;;4.56;39.45;100850.28;5056329;28;20112;-80
2022/03/09 07:07:13;;;;;;;6.60;3.13;;;;;;;4.66;38.66;100851.06;5057601;28;20029;-80
2022/03/09 07:09:38;;;;;;;5.93;2.23;;;;;;;4.61;39.02;100853.34;5058501;28;20033;-79
2022/03/09 07:12:04;;;;;;;7.07;2.13;;;;;;;4.72;38.90;100855.75;5058880;28;20055;-80
2022/03/09 07:14:29;;;;;;;7.75;2.85;;;;;;;4.69;38.38;100853.38;5059487;28;20025;-79
2022/03/09 07:16:54;;;;;;;6.73;2.27;;;;;;;4.77;38.97;100862.28;5061781;28;20079;-79
2022/03/09 07:19:20;;;;;;;6.63;2.60;;;;;;;4.96;38.09;100858.59;5061903;28;20052;-79
2022/03/09 07:21:45;;;;;;;5.17;2.00;;;;;;;5.10;37.59;100865.16;5064289;28;20037;-81
2022/03/09 07:24:10;;;;;;;4.80;1.77;;;;;;;5.07;38.24;100868.97;5063182;28;20025;-80
2022/03/09 07:26:40;;;;;;;5.47;1.93;;;;;;;5.01;37.96;100866.13;5063667;28;20033;-81
2022/03/09 07:29:06;;;;;;;5.65;2.40;;;;;;;4.99;38.37;100871.63;5061118;28;20041;-81
2022/03/09 07:31:33;;;;;;;6.22;2.40;;;;;;;5.05;37.95;100876.31;5057251;28;20049;-79
2022/03/09 07:33:58;;;;;;;6.87;2.57;;;;;;;5.15;37.67;100873.53;5056255;28;20055;-78
2022/03/09 07:36:24;;;;;;;6.37;2.33;;;;;;;5.23;37.69;100873.56;5056007;28;20543;-80
2022/03/09 07:38:49;;;;;;;5.00;2.13;;;;;;;5.23;37.85;100874.41;5055294;28;20039;-81
2022/03/09 07:41:14;;;;;;;7.23;2.67;;;;;;;5.22;38.02;100869.22;5056206;28;20467;-81
2022/03/09 07:43:40;;;;;;;6.13;2.70;;;;;;;5.34;37.41;100883.16;5055312;28;20031;-80
2022/03/09 07:46:05;;;;;;;9.67;3.27;;;;;;;5.39;37.06;100883.50;5055705;28;20029;-81
2022/03/09 07:48:31;;;;;;;8.23;2.25;;;;;;;5.47;38.18;100883.53;5054939;28;20063;-83
2022/03/09 07:50:58;;;;;;;5.72;2.75;;;;;;;5.59;37.26;100884.91;5056135;28;20037;-79
2022/03/09 07:53:24;;;;;;;8.82;3.42;;;;;;;5.62;37.11;100881.09;5055595;28;20036;-79
2022/03/09 07:55:49;;;;;;;6.30;2.33;;;;;;;5.67;37.28;100884.13;5055812;28;20032;-79
2022/03/09 07:58:15;;;;;;;7.20;2.47;;;;;;;5.76;36.96;100881.31;5055694;28;20460;-79
2022/03/09 08:00:40;;;;;;;8.37;2.50;;;;;;;5.84;36.68;100892.03;5055838;28;20053;-80
2022/03/09 08:03:05;;;;;;;6.43;2.67;;;;;;;5.96;36.55;100905.13;5054943;28;20273;-79
2022/03/09 08:05:31;;;;;;;9.47;2.80;;;;;;;5.98;36.87;100901.28;5054111;28;20112;-79
2022/03/09 08:07:56;;;;;;;6.53;2.65;;;;;;;6.08;36.29;100904.69;5055484;28;20278;-82
2022/03/09 08:10:22;;;;;;;7.90;2.53;;;;;;;6.11;36.97;100900.81;5053711;28;20090;-79
2022/03/09 08:12:47;;;;;;;5.50;2.37;;;;;;;6.22;36.03;100909.38;5053314;28;20029;-80
2022/03/09 08:15:13;;;;;;;4.97;2.00;;;;;;;6.30;36.07;100910.38;5057730;28;20036;-79
2022/03/09 08:17:38;;;;;;;7.35;2.70;;;;;;;6.36;35.53;100909.72;5058803;28;20052;-78
2022/03/09 08:20:05;;;;;;;6.13;2.58;;;;;;;6.44;35.60;100912.44;5057455;28;20502;-80
2022/03/09 08:22:30;;;;;;;12.05;3.42;;;;;;;6.57;35.72;100916.28;5059100;28;20041;-79
2022/03/09 08:24:55;;;;;;;5.15;2.33;;;;;;;6.70;35.37;100909.56;5058974;28;20025;-80
2022/03/09 08:27:21;;;;;;;5.63;2.00;;;;;;;6.71;35.28;100914.75;5059366;28;20033;-79
2022/03/09 08:29:47;;;;;;;6.53;2.13;;;;;;;6.86;34.40;100925.63;5059965;28;20053;-79
2022/03/09 08:32:12;;;;;;;;;;;;;;;6.95;34.57;100921.94;5058182;28;20037;-78
2022/03/09 08:34:38;;;;;;;7.75;2.35;;;;;;;6.97;34.21;100917.25;5059354;28;20434;-79
2022/03/09 08:37:03;;;;;;;7.72;3.53;;;;;;;7.13;34.78;100914.56;5058918;28;20036;-80
2022/03/09 08:39:29;;;;;;;6.32;2.35;;;;;;;7.31;34.80;100906.31;5058589;28;20136;-78
2022/03/09 08:41:54;;;;;;;7.23;2.87;;;;;;;7.39;34.10;100908.94;5058506;28;20426;-82
2022/03/09 08:44:21;;;;;;;6.05;2.75;;;;;;;7.53;33.92;100910.91;5058968;28;20028;-78
2022/03/09 08:46:46;;;;;;;4.55;2.17;;;;;;;7.81;32.53;100913.16;5059536;28;20056;-77
2022/03/09 08:49:12;;;;;;;6.75;2.83;;;;;;;7.77;32.96;100911.81;5058640;28;20036;-77
2022/03/09 08:51:38;;;;;;;6.45;2.72;;;;;;;7.89;32.75;100921.97;5059402;28;20365;-79
2022/03/09 08:54:03;;;;;;;7.28;2.45;;;;;;;8.07;32.59;100912.84;5060751;28;20056;-80
2022/03/09 08:56:29;;;;;;;8.13;2.85;;;;;;;8.21;32.36;100914.78;5057915;28;20059;-78
2022/03/09 08:58:55;;;;;;;5.60;2.90;;;;;;;8.34;31.66;100915.88;5057863;28;20382;-78
2022/03/09 09:01:22;;;;;;;5.93;2.03;;;;;;;8.37;31.37;100906.66;5058081;28;20029;-78
2022/03/09 09:03:47;;;;;;;6.32;2.42;;;;;;;8.26;31.03;100917.75;5056455;28;20036;-79
2022/03/09 09:06:14;;;;;;;6.22;2.63;;;;;;;8.32;31.60;100922.44;5056318;28;20083;-78
2022/03/09 09:08:39;;;;;;;8.63;3.03;;;;;;;8.41;31.38;100916.03;5056532;28;20049;-78
2022/03/09 09:11:05;;;;;;;6.00;2.58;;;;;;;8.42;31.44;100919.53;5059156;28;20033;-79
2022/03/09 09:13:30;;;;;;;7.23;2.70;;;;;;;8.56;30.69;100905.34;5058903;28;20036;-78
2022/03/09 09:15:55;;;;;;;6.67;2.77;;;;;;;8.63;31.00;100920.53;5058415;28;20045;-77
2022/03/09 09:18:22;;;;;;;7.80;2.87;;;;;;;8.63;30.57;100920.53;5057436;28;20108;-78
2022/03/09 09:20:48;;;;;;;5.25;2.63;;;;;;;8.55;30.95;100915.25;5057730;28;20468;-80
2022/03/09 09:23:13;;;;;;;5.63;2.47;;;;;;;8.83;30.57;100914.66;5055269;28;20044;-76
2022/03/09 09:25:38;;;;;;;6.90;2.03;;;;;;;8.70;30.31;100926.03;5053561;28;20040;-78
2022/03/09 09:28:04;;;;;;;6.40;2.67;;;;;;;8.75;31.09;100920.13;5054421;28;20057;-76
2022/03/09 09:30:32;;;;;;;6.68;2.72;;;;;;;8.76;30.65;100908.38;5055620;28;20114;-77
2022/03/09 09:32:59;;;;;;;6.57;2.40;;;;;;;8.87;31.14;100914.13;5056385;28;20037;-77
2022/03/09 09:35:24;;;;;;;7.30;2.70;;;;;;;9.11;31.04;100912.22;5054836;28;20037;-78
2022/03/09 09:37:50;;;;;;;5.68;2.53;;;;;;;9.31;30.81;100906.13;5056042;28;20025;-78
2022/03/09 09:40:16;;;;;;;8.48;3.15;;;;;;;9.28;29.96;100914.56;5055106;28;20499;-78
2022/03/09 09:42:43;;;;;;;6.50;2.78;;;;;;;9.37;30.45;100909.91;5055748;28;20037;-78
2022/03/09 09:45:10;;;;;;;6.20;2.80;;;;;;;9.37;31.13;100900.00;5056913;28;20106;-78
2022/03/09 09:47:36;;;;;;;6.80;3.08;;;;;;;9.42;29.42;100914.75;5055525;28;20024;-78
2022/03/09 09:50:03;;;;;;;6.45;2.60;;;;;;;9.26;29.35;100916.59;5053641;28;20052;-77
2022/03/09 09:52:32;;;;;;;6.85;3.08;;;;;;;9.13;30.26;100911.03;5053645;28;20055;-77
2022/03/09 09:54:59;;;;;;;9.50;4.28;;;;;;;9.25;30.26;100912.25;5055476;28;20111;-80
2022/03/09 09:57:30;;;;;;;7.88;3.20;;;;;;;9.19;30.48;100904.06;5054412;28;20475;-77
2022/03/09 09:59:56;;;;;;;6.72;3.22;;;;;;;9.32;30.58;100915.84;5055354;28;20194;-77
2022/03/09 10:02:22;;;;;;;8.50;3.13;;;;;;;9.31;30.69;100914.22;5055953;28;20442;-77
2022/03/09 10:04:50;;;;;;;7.47;3.10;;;;;;;9.31;30.52;100911.53;5054879;28;20036;-77
2022/03/09 10:07:19;;;;;;;8.63;3.17;;;;;;;9.35;30.59;100912.78;5053682;28;20108;-77
2022/03/09 10:09:44;;;;;;;8.43;2.90;;;;;;;9.50;30.12;100904.72;5055340;28;20029;-77
2022/03/09 10:12:13;;;;;;;7.18;2.65;;;;;;;9.59;30.47;100906.31;5056083;28;20036;-78
2022/03/09 10:14:53;;;;;;;7.20;2.80;;;;;;;9.52;29.80;100899.16;5056703;28;20036;-80
2022/03/09 10:17:19;;;;;;;7.90;3.22;;;;;;;9.61;30.23;100909.66;5058364;28;20083;-77
2022/03/09 10:19:46;;;;;;;;;;;;;;;9.81;29.95;100911.75;5054841;28;20501;-78
2022/03/09 10:22:23;;;;;;;7.03;2.63;;;;;;;9.86;30.10;100914.69;5054475;28;20356;-77
2022/03/09 10:24:49;;;;;;;8.57;3.53;;;;;;;9.78;29.57;100914.81;5054563;28;20538;-76
2022/03/09 10:27:37;;;;;;;7.03;2.55;;;;;;;9.88;29.60;100916.19;5054111;28;20467;-80
2022/03/09 10:30:11;;;;;;;7.88;3.08;;;;;;;9.84;29.97;100914.09;5054170;28;20036;-80
2022/03/09 10:33:04;;;;;;;8.98;3.20;;;;;;;9.91;29.33;100914.97;5054922;28;20178;-76
2022/03/09 10:35:30;;;;;;;6.72;2.88;;;;;;;9.97;29.48;100915.06;5053794;28;20041;-77
2022/03/09 10:37:57;;;;;;;6.83;2.70;;;;;;;9.98;29.33;100916.75;5053693;28;20103;-77
2022/03/09 10:40:23;;;;;;;8.82;3.25;;;;;;;10.21;29.68;100908.53;5053754;28;20032;-80
2022/03/09 10:42:49;;;;;;;6.70;2.83;;;;;;;10.44;29.54;100906.50;5054105;28;20040;-77
2022/03/09 10:45:17;;;;;;;;;;;;;;;10.30;29.62;100910.09;5054074;28;20372;-76
2022/03/09 10:47:43;;;;;;;;;;;;;;;10.33;28.99;100901.63;5054009;28;19913;-76
2022/03/09 10:50:20;;;;;;;7.57;2.88;;;;;;;10.48;28.46;100898.88;5052552;28;19913;-75
2022/03/09 10:52:59;;;;;;;8.38;3.25;;;;;;;10.53;27.99;100901.81;5053194;28;20047;-75
2022/03/09 10:55:33;;;;;;;9.02;3.95;;;;;;;10.50;28.73;100896.81;5053805;28;20033;-75
2022/03/09 10:58:15;;;;;;;9.82;3.53;;;;;;;10.54;28.92;100892.72;5053446;28;20025;-77
2022/03/09 11:00:45;;;;;;;7.47;3.15;;;;;;;10.48;29.47;100898.03;5053407;28;20394;-78
2022/03/09 11:03:15;;;;;;;9.85;3.10;;;;;;;10.64;27.76;100887.81;5054246;28;20039;-76
2022/03/09 11:05:47;;;;;;;8.02;3.20;;;;;;;10.81;27.28;100890.25;5051551;28;20033;-76
2022/03/09 11:08:13;;;;;;;12.77;3.60;;;;;;;10.79;27.13;100876.94;5052879;28;20025;-79
2022/03/09 11:10:38;;;;;;;;;;;;;;;10.89;26.80;100888.25;5053972;28;20131;-77
2022/03/09 11:13:04;;;;;;;9.52;4.00;;;;;;;10.87;27.35;100890.31;5054105;28;19968;-77
2022/03/09 11:15:30;;;;;;;8.95;2.85;;;;;;;10.88;27.46;100880.34;5052832;28;20064;-78
2022/03/09 11:17:56;;;;;;;7.05;3.30;;;;;;;10.97;27.03;100880.00;5053816;28;20415;-77
2022/03/09 11:20:22;;;;;;;8.30;3.22;;;;;;;10.95;27.48;100875.81;5054598;28;20037;-77
2022/03/09 11:22:49;;;;;;;9.52;3.92;;;;;;;11.06;27.20;100872.59;5053742;28;20086;-78
2022/03/09 11:25:15;;;;;;;8.60;3.25;;;;;;;11.19;26.32;100867.28;5054356;28;20504;-78
2022/03/09 11:27:44;;;;;;;8.27;3.42;;;;;;;11.14;26.47;100875.13;5054870;28;20071;-77
2022/03/09 11:30:25;;;;;;;7.63;3.28;;;;;;;11.12;26.85;100871.78;5055383;28;20044;-78
2022/03/09 11:32:51;;;;;;;8.13;3.03;;;;;;;11.33;26.28;100871.72;5052441;28;20036;-78